createdAt,value
2023-02-13T00:01:52.945Z,7.82
2023-02-13T00:04:19.298Z,7.81
2023-02-13T00:06:47.690Z,7.81
2023-02-13T00:09:14.711Z,7.74
2023-02-13T00:11:41.215Z,7.83
2023-02-13T00:14:07.621Z,7.74
2023-02-13T00:16:34.360Z,7.78
2023-02-13T00:19:00.686Z,7.70
2023-02-13T00:21:27.061Z,7.78
2023-02-13T00:23:53.437Z,7.74
2023-02-13T00:26:19.885Z,7.66
2023-02-13T00:28:47.386Z,7.63
2023-02-13T00:31:17.682Z,7.66
2023-02-13T00:33:44.524Z,7.70
2023-02-13T00:36:16.600Z,7.65
2023-02-13T00:38:44.585Z,7.67
2023-02-13T00:41:12.337Z,7.62
2023-02-13T00:43:38.872Z,7.70
2023-02-13T00:46:06.306Z,7.74
2023-02-13T00:48:34.429Z,7.73
2023-02-13T00:51:01.355Z,7.74
2023-02-13T00:53:30.728Z,7.74
2023-02-13T00:55:57.156Z,7.77
2023-02-13T00:58:24.273Z,7.66
2023-02-13T01:00:52.654Z,7.68
2023-02-13T01:03:19.636Z,7.72
2023-02-13T01:05:46.778Z,7.73
2023-02-13T01:08:14.162Z,7.74
2023-02-13T01:10:41.703Z,7.72
2023-02-13T01:13:08.915Z,7.69
2023-02-13T01:15:35.757Z,7.77
2023-02-13T01:18:02.221Z,7.72
2023-02-13T01:20:29.696Z,7.73
2023-02-13T01:22:58.061Z,7.74
2023-02-13T01:25:25.017Z,7.74
2023-02-13T01:27:51.595Z,7.75
2023-02-13T01:30:19.178Z,7.74
2023-02-13T01:32:47.692Z,7.69
2023-02-13T01:35:15.264Z,7.70
2023-02-13T01:37:42.168Z,7.72
2023-02-13T01:40:12.010Z,7.72
2023-02-13T01:42:38.886Z,7.72
2023-02-13T01:45:22.502Z,7.71
2023-02-13T01:48:07.211Z,7.78
2023-02-13T01:50:39.623Z,7.78
2023-02-13T01:53:30.480Z,7.73
2023-02-13T01:56:21.443Z,7.76
2023-02-13T01:58:51.158Z,7.75
2023-02-13T02:01:17.627Z,7.77
2023-02-13T02:03:47.602Z,7.76
2023-02-13T02:06:23.863Z,7.80
2023-02-13T02:08:53.652Z,7.78
2023-02-13T02:11:30.498Z,7.75
2023-02-13T02:13:58.147Z,7.75
2023-02-13T02:16:33.343Z,7.75
2023-02-13T02:19:04.174Z,7.75
2023-02-13T02:21:46.125Z,7.72
2023-02-13T02:24:47.636Z,7.75
2023-02-13T02:27:40.279Z,7.76
2023-02-13T02:30:46.304Z,7.73
2023-02-13T02:33:34.145Z,7.70
2023-02-13T02:36:05.291Z,7.68
2023-02-13T02:38:35.383Z,7.69
2023-02-13T02:41:42.760Z,7.72
2023-02-13T02:44:38.903Z,7.70
2023-02-13T02:47:47.856Z,7.76
2023-02-13T02:50:32.811Z,7.73
2023-02-13T02:53:38.207Z,7.75
2023-02-13T02:56:14.465Z,7.69
2023-02-13T02:59:12.640Z,7.70
2023-02-13T03:01:59.387Z,7.71
2023-02-13T03:04:52.071Z,7.64
2023-02-13T03:07:19.476Z,7.63
2023-02-13T03:10:08.331Z,7.69
2023-02-13T03:13:02.518Z,7.61
2023-02-13T03:15:29.859Z,7.60
2023-02-13T03:18:16.612Z,7.65
2023-02-13T03:21:07.867Z,7.64
2023-02-13T03:24:02.406Z,7.72
2023-02-13T03:26:50.139Z,7.72
2023-02-13T03:29:48.601Z,7.73
2023-02-13T03:32:17.669Z,7.67
2023-02-13T03:35:11.715Z,7.68
2023-02-13T03:37:57.018Z,7.62
2023-02-13T03:40:36.651Z,7.47
2023-02-13T03:43:16.570Z,7.60
2023-02-13T03:45:53.399Z,7.58
2023-02-13T03:48:47.549Z,7.53
2023-02-13T03:51:20.373Z,7.51
2023-02-13T03:53:52.377Z,7.47
2023-02-13T03:56:40.473Z,7.46
2023-02-13T03:59:17.634Z,7.43
2023-02-13T04:01:51.403Z,7.36
2023-02-13T04:04:48.251Z,7.34
2023-02-13T04:07:29.463Z,7.34
2023-02-13T04:10:00.446Z,7.39
2023-02-13T04:12:50.646Z,7.33
2023-02-13T04:15:24.470Z,7.34
2023-02-13T04:18:05.379Z,7.30
2023-02-13T04:20:32.605Z,7.31
2023-02-13T04:23:05.774Z,7.29
2023-02-13T04:25:32.355Z,7.28
2023-02-13T04:27:58.700Z,7.26
2023-02-13T04:30:25.151Z,7.26
2023-02-13T04:32:52.778Z,7.26
2023-02-13T04:35:19.202Z,7.25
2023-02-13T04:37:45.558Z,7.33
2023-02-13T04:40:12.174Z,7.23
2023-02-13T04:42:38.531Z,7.15
2023-02-13T04:45:05.229Z,7.18
2023-02-13T04:47:31.571Z,7.21
2023-02-13T04:49:57.954Z,7.16
2023-02-13T04:52:24.330Z,7.19
2023-02-13T04:54:50.723Z,7.14
2023-02-13T04:57:17.042Z,7.19
2023-02-13T04:59:43.567Z,7.10
2023-02-13T05:02:10.058Z,7.15
2023-02-13T05:04:36.414Z,7.12
2023-02-13T05:07:02.818Z,7.12
2023-02-13T05:09:29.187Z,7.02
2023-02-13T05:11:55.661Z,7.03
2023-02-13T05:14:22.146Z,7.13
2023-02-13T05:16:49.666Z,7.09
2023-02-13T05:19:16.884Z,7.07
2023-02-13T05:22:01.731Z,7.07
2023-02-13T05:24:28.106Z,7.05
2023-02-13T05:26:54.447Z,7.01
2023-02-13T05:29:22.446Z,7.01
2023-02-13T05:31:55.035Z,7.05
2023-02-13T05:34:22.959Z,7.07
2023-02-13T05:36:49.915Z,7.03
2023-02-13T05:39:16.402Z,7.00
2023-02-13T05:41:44.393Z,6.94
2023-02-13T05:44:11.732Z,6.98
2023-02-13T05:46:39.988Z,7.00
2023-02-13T05:49:07.671Z,6.97
2023-02-13T05:51:34.118Z,7.05
2023-02-13T05:54:00.507Z,7.02
2023-02-13T05:56:26.975Z,7.03
2023-02-13T05:58:57.172Z,7.04
2023-02-13T06:01:24.614Z,7.07
2023-02-13T06:03:51.578Z,7.03
2023-02-13T06:06:18.218Z,7.00
2023-02-13T06:08:44.629Z,7.01
2023-02-13T06:11:12.308Z,7.05
2023-02-13T06:13:40.623Z,7.04
2023-02-13T06:16:11.672Z,7.07
2023-02-13T06:18:39.161Z,6.98
2023-02-13T06:21:06.712Z,7.02
2023-02-13T06:23:33.178Z,7.01
2023-02-13T06:26:07.517Z,6.94
2023-02-13T06:28:34.486Z,6.94
2023-02-13T06:31:01.802Z,6.92
2023-02-13T06:33:28.560Z,6.87
2023-02-13T06:35:54.900Z,6.86
2023-02-13T06:38:21.451Z,6.85
2023-02-13T06:40:48.870Z,6.78
2023-02-13T06:43:16.126Z,6.70
2023-02-13T06:45:42.479Z,6.68
2023-02-13T06:48:09.449Z,6.64
2023-02-13T06:50:36.179Z,6.59
2023-02-13T06:53:02.513Z,6.56
2023-02-13T06:55:29.002Z,6.48
2023-02-13T06:57:55.347Z,6.49
2023-02-13T07:00:21.915Z,6.41
2023-02-13T07:02:48.484Z,6.36
2023-02-13T07:05:15.241Z,6.29
2023-02-13T07:07:42.731Z,6.17
2023-02-13T07:10:11.913Z,6.07
2023-02-13T07:12:38.460Z,6.06
2023-02-13T07:15:06.291Z,6.01
2023-02-13T07:17:33.839Z,6.00
2023-02-13T07:20:00.222Z,5.92
2023-02-13T07:22:26.564Z,5.91
2023-02-13T07:24:52.897Z,5.90
2023-02-13T07:27:19.262Z,5.86
2023-02-13T07:29:45.598Z,5.87
2023-02-13T07:32:12.018Z,5.86
2023-02-13T07:34:39.919Z,5.86
2023-02-13T07:37:09.058Z,5.87
2023-02-13T07:39:38.725Z,5.99
2023-02-13T07:42:06.218Z,6.04
2023-02-13T07:44:32.891Z,6.10
2023-02-13T07:47:00.941Z,6.16
2023-02-13T07:49:27.337Z,6.23
2023-02-13T07:51:56.347Z,6.36
2023-02-13T07:54:22.673Z,6.39
2023-02-13T07:56:48.985Z,6.49
2023-02-13T07:59:15.684Z,6.57
2023-02-13T08:01:42.041Z,6.67
2023-02-13T08:04:08.482Z,6.76
2023-02-13T08:06:34.883Z,6.84
2023-02-13T08:09:19.859Z,6.86
2023-02-13T08:11:55.070Z,6.97
2023-02-13T08:14:26.568Z,7.01
2023-02-13T08:16:54.415Z,7.07
2023-02-13T08:19:21.188Z,7.16
2023-02-13T08:21:47.652Z,7.19
2023-02-13T08:24:14.016Z,7.23
2023-02-13T08:26:40.438Z,7.30
2023-02-13T08:29:07.354Z,7.42
2023-02-13T08:31:33.990Z,7.40
2023-02-13T08:34:00.584Z,7.41
2023-02-13T08:36:27.136Z,7.45
2023-02-13T08:38:53.482Z,7.56
2023-02-13T08:41:22.025Z,7.54
2023-02-13T08:43:49.762Z,7.55
2023-02-13T08:46:17.252Z,7.61
2023-02-13T08:48:43.859Z,7.70
2023-02-13T08:51:11.840Z,7.75
2023-02-13T08:53:38.980Z,7.77
2023-02-13T08:56:06.380Z,7.84
2023-02-13T08:58:33.097Z,7.94
2023-02-13T09:00:59.452Z,7.96
2023-02-13T09:03:25.798Z,7.99
2023-02-13T09:05:52.203Z,8.03
2023-02-13T09:08:19.037Z,8.06
2023-02-13T09:10:45.527Z,8.21
2023-02-13T09:13:12.512Z,8.39
2023-02-13T09:15:42.927Z,8.54
2023-02-13T09:18:09.420Z,8.67
2023-02-13T09:20:36.223Z,8.79
2023-02-13T09:23:03.650Z,8.77
2023-02-13T09:25:31.229Z,8.90
2023-02-13T09:27:59.549Z,9.03
2023-02-13T09:30:26.160Z,9.20
2023-02-13T09:32:53.717Z,9.36
2023-02-13T09:35:20.935Z,9.48
2023-02-13T09:37:47.383Z,9.57
2023-02-13T09:40:23.015Z,9.63
2023-02-13T09:42:50.073Z,9.63
2023-02-13T09:45:20.360Z,9.70
2023-02-13T09:47:47.562Z,9.82
2023-02-13T09:50:25.383Z,9.92
2023-02-13T09:52:54.463Z,9.87
2023-02-13T09:55:29.508Z,9.86
2023-02-13T09:58:08.642Z,9.96
2023-02-13T10:00:40.118Z,9.96
2023-02-13T10:03:23.533Z,10.12
2023-02-13T10:06:05.819Z,9.99
2023-02-13T10:08:49.704Z,10.16
2023-02-13T10:11:25.904Z,10.31
2023-02-13T10:14:00.261Z,10.50
2023-02-13T10:17:02.236Z,10.58
2023-02-13T10:19:35.368Z,10.50
2023-02-13T10:22:10.971Z,10.49
2023-02-13T10:24:44.409Z,10.69
2023-02-13T10:27:34.852Z,10.89
2023-02-13T10:30:12.798Z,11.10
2023-02-13T10:32:52.061Z,11.24
2023-02-13T10:35:29.114Z,11.31
2023-02-13T10:37:59.266Z,11.28
2023-02-13T10:40:33.562Z,11.24
2023-02-13T10:43:10.556Z,11.27
2023-02-13T10:45:55.371Z,11.42
2023-02-13T10:48:49.824Z,11.53
2023-02-13T10:51:31.226Z,11.44
2023-02-13T10:54:39.207Z,11.51
2023-02-13T10:57:22.120Z,11.50
2023-02-13T11:00:07.957Z,11.46
2023-02-13T11:02:35.702Z,11.49
2023-02-13T11:05:14.056Z,11.48
2023-02-13T11:07:42.267Z,11.39
2023-02-13T11:10:24.945Z,11.46
2023-02-13T11:12:52.417Z,11.71
2023-02-13T11:15:30.051Z,11.93
2023-02-13T11:18:14.776Z,12.03
2023-02-13T11:20:46.654Z,11.88
2023-02-13T11:23:25.182Z,11.76
2023-02-13T11:26:02.717Z,11.96
2023-02-13T11:28:31.789Z,12.05
2023-02-13T11:31:24.647Z,12.37
2023-02-13T11:33:51.150Z,12.58
2023-02-13T11:36:37.789Z,12.64
2023-02-13T11:39:17.046Z,12.62
2023-02-13T11:41:45.482Z,12.23
2023-02-13T11:44:26.162Z,12.48
2023-02-13T11:46:55.745Z,12.52
2023-02-13T11:49:32.731Z,12.46
2023-02-13T11:52:27.573Z,12.53
2023-02-13T11:54:59.606Z,12.77
2023-02-13T11:57:35.746Z,12.75
2023-02-13T12:00:54.264Z,13.06
2023-02-13T12:03:29.449Z,13.34
2023-02-13T12:06:14.114Z,13.42
2023-02-13T12:08:44.033Z,13.41
2023-02-13T12:11:22.320Z,13.35
2023-02-13T12:13:49.454Z,12.92
2023-02-13T12:16:36.400Z,13.11
2023-02-13T12:19:07.516Z,13.16
2023-02-13T12:21:48.637Z,13.06
2023-02-13T12:24:33.954Z,13.22
2023-02-13T12:27:23.423Z,13.13
2023-02-13T12:29:55.781Z,13.23
2023-02-13T12:32:56.040Z,13.39
2023-02-13T12:35:55.071Z,13.44
2023-02-13T12:38:57.198Z,13.43
2023-02-13T12:41:33.153Z,13.57
2023-02-13T12:44:41.452Z,13.78
2023-02-13T12:47:22.426Z,13.89
2023-02-13T12:50:06.923Z,13.79
2023-02-13T12:52:47.070Z,13.94
2023-02-13T12:55:22.924Z,14.04
2023-02-13T12:58:12.227Z,13.89
2023-02-13T13:00:59.825Z,14.08
2023-02-13T13:03:49.639Z,14.16
2023-02-13T13:06:29.918Z,14.12
2023-02-13T13:09:17.089Z,13.88
2023-02-13T13:12:24.961Z,13.76
2023-02-13T13:14:57.422Z,13.73
2023-02-13T13:17:32.948Z,13.85
2023-02-13T13:20:23.012Z,13.96
2023-02-13T13:22:56.987Z,14.01
2023-02-13T13:25:46.064Z,13.82
2023-02-13T13:28:29.523Z,13.88
2023-02-13T13:30:58.784Z,14.01
2023-02-13T13:33:28.033Z,14.17
2023-02-13T13:36:07.413Z,14.39
2023-02-13T13:38:51.741Z,14.59
2023-02-13T13:41:33.393Z,14.56
2023-02-13T13:44:41.230Z,14.46
2023-02-13T13:47:36.620Z,14.41
2023-02-13T13:50:05.891Z,14.34
2023-02-13T13:52:35.071Z,14.29
2023-02-13T13:55:04.271Z,14.36
2023-02-13T13:57:42.886Z,14.24
2023-02-13T14:00:09.936Z,14.22
2023-02-13T14:03:10.834Z,14.15
2023-02-13T14:06:01.874Z,14.12
2023-02-13T14:08:56.067Z,14.08
2023-02-13T14:11:33.376Z,13.92
2023-02-13T14:14:00.463Z,13.71
2023-02-13T14:16:46.285Z,13.77
2023-02-13T14:19:35.535Z,13.75
2023-02-13T14:22:20.096Z,13.66
2023-02-13T14:24:51.244Z,13.70
2023-02-13T14:27:27.305Z,13.59
2023-02-13T14:29:55.802Z,13.68
2023-02-13T14:32:30.928Z,13.68
2023-02-13T14:35:01.440Z,13.59
2023-02-13T14:37:35.051Z,13.58
2023-02-13T14:40:28.433Z,13.53
2023-02-13T14:42:58.749Z,13.49
2023-02-13T14:45:46.693Z,13.38
2023-02-13T14:48:15.495Z,13.47
2023-02-13T14:50:51.636Z,13.44
2023-02-13T14:53:28.663Z,13.36
2023-02-13T14:56:07.208Z,13.41
2023-02-13T14:58:37.018Z,13.43
2023-02-13T15:01:07.949Z,13.38
2023-02-13T15:03:34.280Z,13.24
2023-02-13T15:06:05.666Z,13.30
2023-02-13T15:08:38.078Z,13.28
2023-02-13T15:11:04.506Z,13.19
2023-02-13T15:13:37.186Z,13.14
2023-02-13T15:16:11.748Z,13.11
2023-02-13T15:18:45.248Z,13.12
2023-02-13T15:21:18.391Z,12.98
2023-02-13T15:23:50.175Z,12.93
2023-02-13T15:26:23.857Z,12.90
2023-02-13T15:29:09.127Z,12.89
2023-02-13T15:31:38.154Z,12.94
2023-02-13T15:34:20.398Z,12.90
2023-02-13T15:36:47.711Z,12.83
2023-02-13T15:39:20.538Z,12.82
2023-02-13T15:41:50.487Z,12.83
2023-02-13T15:44:20.653Z,12.73
2023-02-13T15:46:48.426Z,12.72
2023-02-13T15:49:22.136Z,12.57
2023-02-13T15:51:49.100Z,12.58
2023-02-13T15:54:31.062Z,12.42
2023-02-13T15:57:00.785Z,12.32
2023-02-13T15:59:33.559Z,12.37
2023-02-13T16:02:01.014Z,12.38
2023-02-13T16:04:28.313Z,12.27
2023-02-13T16:06:56.360Z,12.20
2023-02-13T16:09:34.211Z,12.16
2023-02-13T16:12:28.134Z,12.08
2023-02-13T16:15:02.154Z,12.11
2023-02-13T16:17:37.459Z,12.00
2023-02-13T16:20:27.192Z,11.98
2023-02-13T16:22:59.063Z,11.83
2023-02-13T16:25:38.255Z,11.78
2023-02-13T16:28:18.276Z,11.71
2023-02-13T16:30:59.286Z,11.65
2023-02-13T16:33:44.552Z,11.54
2023-02-13T16:36:10.849Z,11.45
2023-02-13T16:38:48.198Z,11.44
2023-02-13T16:41:17.594Z,11.34
2023-02-13T16:44:03.510Z,11.25
2023-02-13T16:46:41.062Z,11.11
2023-02-13T16:49:10.791Z,11.02
2023-02-13T16:51:48.003Z,10.95
2023-02-13T16:54:20.411Z,10.89
2023-02-13T16:57:18.045Z,10.92
2023-02-13T16:59:47.407Z,10.78
2023-02-13T17:02:27.499Z,10.60
2023-02-13T17:05:09.171Z,10.57
2023-02-13T17:07:48.250Z,10.48
2023-02-13T17:10:34.961Z,10.28
2023-02-13T17:13:11.448Z,10.35
2023-02-13T17:15:41.879Z,10.24
2023-02-13T17:18:08.271Z,10.20
2023-02-13T17:20:36.077Z,10.04
2023-02-13T17:23:05.644Z,9.94
2023-02-13T17:25:35.252Z,9.99
2023-02-13T17:28:17.506Z,9.89
2023-02-13T17:30:45.007Z,9.79
2023-02-13T17:33:14.562Z,9.81
2023-02-13T17:35:40.998Z,9.79
2023-02-13T17:38:09.441Z,9.67
2023-02-13T17:40:36.495Z,9.62
2023-02-13T17:43:04.708Z,9.53
2023-02-13T17:45:33.655Z,9.36
2023-02-13T17:48:00.167Z,9.32
2023-02-13T17:50:28.724Z,9.25
2023-02-13T17:52:55.612Z,9.21
2023-02-13T17:55:25.405Z,9.07
2023-02-13T17:57:56.494Z,8.98
2023-02-13T18:00:25.192Z,8.86
2023-02-13T18:02:51.697Z,8.81
2023-02-13T18:05:19.148Z,8.71
2023-02-13T18:07:46.352Z,8.61
2023-02-13T18:10:16.766Z,8.60
2023-02-13T18:12:43.739Z,8.62
2023-02-13T18:15:11.077Z,8.60
2023-02-13T18:17:37.650Z,8.59
2023-02-13T18:20:09.659Z,8.50
2023-02-13T18:22:36.293Z,8.45
2023-02-13T18:25:02.818Z,8.46
2023-02-13T18:27:29.582Z,8.44
2023-02-13T18:29:56.152Z,8.38
2023-02-13T18:32:23.335Z,8.26
2023-02-13T18:34:50.099Z,8.23
2023-02-13T18:37:17.434Z,8.25
2023-02-13T18:39:44.210Z,8.20
2023-02-13T18:42:13.101Z,8.14
2023-02-13T18:44:40.169Z,8.04
2023-02-13T18:47:06.882Z,7.93
2023-02-13T18:49:33.347Z,7.88
2023-02-13T18:52:00.629Z,7.83
2023-02-13T18:54:26.958Z,7.80
2023-02-13T18:56:53.360Z,7.65
2023-02-13T18:59:19.725Z,7.59
2023-02-13T19:01:46.110Z,7.52
2023-02-13T19:04:12.569Z,7.41
2023-02-13T19:06:40.422Z,7.29
2023-02-13T19:09:07.018Z,7.33
2023-02-13T19:11:34.234Z,7.28
2023-02-13T19:14:02.280Z,7.22
2023-02-13T19:16:30.629Z,7.20
2023-02-13T19:19:00.007Z,7.15
2023-02-13T19:21:28.689Z,7.09
2023-02-13T19:23:55.176Z,7.01
2023-02-13T19:26:24.273Z,6.91
2023-02-13T19:28:51.512Z,6.86
2023-02-13T19:31:21.335Z,6.73
2023-02-13T19:33:49.106Z,6.67
2023-02-13T19:36:19.826Z,6.60
2023-02-13T19:38:47.547Z,6.52
2023-02-13T19:41:17.118Z,6.48
2023-02-13T19:43:53.152Z,6.47
2023-02-13T19:46:22.905Z,6.42
2023-02-13T19:48:49.918Z,6.41
2023-02-13T19:51:19.002Z,6.36
2023-02-13T19:53:45.734Z,6.35
2023-02-13T19:56:13.152Z,6.29
2023-02-13T19:58:41.535Z,6.28
2023-02-13T20:01:10.433Z,6.24
2023-02-13T20:03:37.303Z,6.21
2023-02-13T20:06:08.756Z,6.15
2023-02-13T20:08:35.625Z,6.10
2023-02-13T20:11:02.007Z,6.05
2023-02-13T20:13:28.566Z,5.98
2023-02-13T20:15:55.150Z,5.93
2023-02-13T20:18:21.886Z,5.89
2023-02-13T20:20:48.399Z,5.85
2023-02-13T20:23:17.500Z,5.81
2023-02-13T20:25:44.449Z,5.75
2023-02-13T20:28:11.464Z,5.70
2023-02-13T20:30:42.113Z,5.65
2023-02-13T20:33:08.942Z,5.60
2023-02-13T20:35:35.789Z,5.60
2023-02-13T20:38:02.410Z,5.53
2023-02-13T20:40:28.982Z,5.50
2023-02-13T20:42:55.457Z,5.47
2023-02-13T20:45:21.883Z,5.45
2023-02-13T20:47:48.624Z,5.41
2023-02-13T20:50:14.955Z,5.35
2023-02-13T20:52:41.285Z,5.31
2023-02-13T20:55:07.905Z,5.23
2023-02-13T20:57:35.407Z,5.20
2023-02-13T21:00:04.520Z,5.14
2023-02-13T21:02:31.057Z,5.07
2023-02-13T21:04:57.571Z,5.04
2023-02-13T21:07:23.918Z,5.01
2023-02-13T21:09:50.285Z,4.97
2023-02-13T21:12:16.649Z,4.90
2023-02-13T21:14:43.090Z,4.82
2023-02-13T21:17:09.628Z,4.80
2023-02-13T21:19:36.169Z,4.80
2023-02-13T21:22:11.931Z,4.73
2023-02-13T21:24:40.234Z,4.64
2023-02-13T21:27:07.869Z,4.64
2023-02-13T21:29:35.566Z,4.57
2023-02-13T21:32:02.409Z,4.58
2023-02-13T21:34:29.156Z,4.46
2023-02-13T21:36:55.528Z,4.45
2023-02-13T21:39:21.874Z,4.34
2023-02-13T21:41:48.690Z,4.32
2023-02-13T21:44:15.827Z,4.28
2023-02-13T21:46:43.729Z,4.28
2023-02-13T21:49:12.752Z,4.25
2023-02-13T21:51:39.124Z,4.18
2023-02-13T21:54:05.945Z,4.16
2023-02-13T21:56:35.893Z,4.01
2023-02-13T21:59:02.721Z,4.00
2023-02-13T22:01:44.306Z,3.94
2023-02-13T22:04:10.772Z,3.96
2023-02-13T22:06:38.761Z,3.95
2023-02-13T22:09:11.242Z,3.97
2023-02-13T22:11:38.281Z,3.96
2023-02-13T22:14:07.566Z,3.91
2023-02-13T22:16:36.548Z,3.87
2023-02-13T22:19:04.120Z,3.84
2023-02-13T22:21:31.964Z,3.81
2023-02-13T22:23:58.974Z,3.81
2023-02-13T22:26:29.874Z,3.79
2023-02-13T22:29:02.226Z,3.70
2023-02-13T22:31:29.070Z,3.78
2023-02-13T22:34:05.012Z,3.65
2023-02-13T22:36:40.023Z,3.54
2023-02-13T22:39:08.155Z,3.46
2023-02-13T22:41:34.574Z,3.52
2023-02-13T22:44:00.973Z,3.44
2023-02-13T22:46:31.492Z,3.39
2023-02-13T22:48:58.913Z,3.37
2023-02-13T22:51:28.146Z,3.39
2023-02-13T22:53:56.408Z,3.34
2023-02-13T22:56:24.252Z,3.30
2023-02-13T22:58:50.908Z,3.25
2023-02-13T23:01:19.412Z,3.22
2023-02-13T23:03:46.396Z,3.16
2023-02-13T23:06:14.581Z,3.06
2023-02-13T23:08:41.414Z,3.02
2023-02-13T23:11:32.268Z,3.02
2023-02-13T23:13:58.897Z,3.06
2023-02-13T23:16:25.643Z,3.09
2023-02-13T23:18:54.324Z,3.09
2023-02-13T23:21:21.268Z,3.05
2023-02-13T23:23:47.992Z,3.02
2023-02-13T23:26:14.407Z,2.98
2023-02-13T23:28:40.777Z,2.97
2023-02-13T23:31:07.306Z,2.94
2023-02-13T23:33:33.758Z,2.95
2023-02-13T23:36:00.183Z,2.90
2023-02-13T23:38:26.621Z,2.86
2023-02-13T23:40:52.991Z,2.86
2023-02-13T23:43:19.346Z,2.84
2023-02-13T23:45:46.050Z,2.83
2023-02-13T23:48:12.709Z,2.75
2023-02-13T23:50:40.129Z,2.70
2023-02-13T23:53:06.517Z,2.59
2023-02-13T23:55:32.911Z,2.46
2023-02-13T23:57:59.291Z,2.56
